Time;durP1;ratioP1;P1;durP2;ratioP2;P2;SDS_P1;SDS_P2;PMS_P1;PMS_P2;Temp;Humidity;BMP_temperature;BMP_pressure;BME280_temperature;BME280_humidity;BME280_pressure;Samples;Min_cycle;Max_cycle;Signal;HPM_P1;HPM_P2
2023/11/08 00:02:03;;;;;;;2.38;2.17;;;;;;;;;;5014617;28;20703;-78
2023/11/08 00:04:29;;;;;;;2.28;2.08;;;;;;;;;;5014425;28;20417;-78
2023/11/08 00:06:55;;;;;;;2.20;2.00;;;;;;;;;;5014179;28;20435;-78
2023/11/08 00:09:21;;;;;;;2.90;1.80;;;;;;;;;;5013904;28;21102;-78
2023/11/08 00:11:47;;;;;;;2.00;1.80;;;;;;;;;;5028309;28;20494;-78
2023/11/08 00:14:13;;;;;;;2.10;1.90;;;;;;;;;;5032215;28;20713;-78
2023/11/08 00:16:39;;;;;;;2.10;1.90;;;;;;;;;;5033637;28;20441;-78
2023/11/08 00:19:07;;;;;;;2.13;1.90;;;;;;;;;;5033609;28;20785;-78
2023/11/08 00:21:34;;;;;;;1.80;1.70;;;;;;;;;;5033450;28;20379;-78
2023/11/08 00:24:00;;;;;;;3.17;2.00;;;;;;;;;;5034001;28;20383;-78
2023/11/08 00:26:26;;;;;;;2.25;2.00;;;;;;;;;;5033425;28;20391;-78
2023/11/08 00:28:52;;;;;;;2.03;1.80;;;;;;;;;;5032700;28;20864;-78
2023/11/08 00:31:18;;;;;;;2.15;1.67;;;;;;;;;;5033640;28;20386;-78
2023/11/08 00:33:44;;;;;;;2.90;1.80;;;;;;;;;;5033717;28;20733;-78
2023/11/08 00:36:10;;;;;;;2.05;1.70;;;;;;;;;;5033165;28;20391;-78
2023/11/08 00:38:36;;;;;;;1.88;1.60;;;;;;;;;;5033372;28;20399;-78
2023/11/08 00:41:02;;;;;;;2.90;1.90;;;;;;;;;;5033198;28;20466;-78
2023/11/08 00:43:28;;;;;;;3.28;2.05;;;;;;;;;;5033267;28;20383;-78
2023/11/08 00:45:55;;;;;;;3.22;2.30;;;;;;;;;;5033115;28;20383;-78
2023/11/08 00:48:23;;;;;;;3.33;2.40;;;;;;;;;;5033009;28;20460;-78
2023/11/08 00:50:51;;;;;;;3.42;2.50;;;;;;;;;;5015277;28;20391;-78
2023/11/08 00:53:18;;;;;;;3.83;3.10;;;;;;;;;;5033103;28;20451;-78
2023/11/08 00:55:44;;;;;;;3.05;2.70;;;;;;;;;;5033064;28;20437;-78
2023/11/08 00:58:10;;;;;;;4.32;2.85;;;;;;;;;;5033143;28;20452;-78
2023/11/08 01:00:36;;;;;;;3.55;2.83;;;;;;;;;;5033058;28;20748;-78
2023/11/08 01:03:03;;;;;;;2.35;2.13;;;;;;;;;;5033076;28;20386;-78
2023/11/08 01:05:31;;;;;;;4.07;2.58;;;;;;;;;;5032306;28;20741;-78
2023/11/08 01:07:57;;;;;;;2.80;1.92;;;;;;;;;;5032523;28;20379;-78
2023/11/08 01:10:23;;;;;;;2.80;1.80;;;;;;;;;;5032835;28;20375;-78
2023/11/08 01:12:53;;;;;;;2.20;2.00;;;;;;;;;;5030792;28;20580;-78
2023/11/08 01:15:20;;;;;;;2.28;2.08;;;;;;;;;;5013201;28;20384;-78
2023/11/08 01:17:46;;;;;;;2.42;2.22;;;;;;;;;;5012748;28;20393;-78
2023/11/08 01:20:12;;;;;;;3.00;2.58;;;;;;;;;;5012810;28;20380;-78
2023/11/08 01:22:39;;;;;;;3.05;2.80;;;;;;;;;;5012473;28;20377;-78
2023/11/08 01:25:05;;;;;;;2.95;2.40;;;;;;;;;;5012815;28;20385;-78
2023/11/08 01:27:31;;;;;;;2.58;2.30;;;;;;;;;;5012771;28;20732;-78
2023/11/08 01:29:58;;;;;;;2.47;2.27;;;;;;;;;;5012765;28;20400;-78
2023/11/08 01:32:24;;;;;;;2.65;1.90;;;;;;;;;;5015138;28;20451;-78
2023/11/08 01:34:50;;;;;;;2.33;2.03;;;;;;;;;;5012391;28;20806;-78
2023/11/08 01:37:19;;;;;;;2.85;1.90;;;;;;;;;;5012376;28;20389;-78
2023/11/08 01:39:45;;;;;;;2.17;1.97;;;;;;;;;;4994122;28;20381;-78
2023/11/08 01:42:11;;;;;;;2.83;1.92;;;;;;;;;;5012440;28;20870;-78
2023/11/08 01:44:38;;;;;;;2.03;1.70;;;;;;;;;;5011985;28;20732;-78
2023/11/08 01:47:04;;;;;;;2.40;2.05;;;;;;;;;;5012493;28;20380;-78
2023/11/08 01:49:31;;;;;;;2.00;1.90;;;;;;;;;;5012427;28;20437;-78
2023/11/08 01:51:59;;;;;;;9.57;6.63;;;;;;;;;;5012056;28;20397;-78
2023/11/08 01:54:27;;;;;;;3.55;2.90;;;;;;;;;;5012541;28;20454;-78
2023/11/08 01:56:53;;;;;;;4.07;3.20;;;;;;;;;;5012539;28;20434;-78
2023/11/08 01:59:19;;;;;;;59.05;26.70;;;;;;;;;;5012142;28;20762;-78
2023/11/08 02:01:46;;;;;;;2.90;2.33;;;;;;;;;;5012003;28;20472;-78
2023/11/08 02:04:12;;;;;;;70.35;27.42;;;;;;;;;;5011940;28;20497;-78
2023/11/08 02:06:39;;;;;;;4.05;2.55;;;;;;;;;;5011782;28;20380;-78
2023/11/08 02:09:05;;;;;;;4.05;3.65;;;;;;;;;;5011885;28;20396;-78
2023/11/08 02:11:33;;;;;;;7.80;6.22;;;;;;;;;;5023147;28;20453;-78
2023/11/08 02:13:59;;;;;;;8.02;6.82;;;;;;;;;;5028509;28;20438;-78
2023/11/08 02:16:25;;;;;;;7.55;6.85;;;;;;;;;;5031448;28;20379;-78
2023/11/08 02:18:51;;;;;;;4.15;3.40;;;;;;;;;;5031505;28;20413;-78
2023/11/08 02:21:17;;;;;;;7.05;6.20;;;;;;;;;;5031570;28;20387;-78
2023/11/08 02:23:44;;;;;;;5.65;5.15;;;;;;;;;;5031926;28;20382;-78
2023/11/08 02:26:10;;;;;;;3.90;3.60;;;;;;;;;;5031561;28;20387;-78
2023/11/08 02:28:37;;;;;;;2.65;2.28;;;;;;;;;;5031744;28;20847;-78
2023/11/08 02:31:03;;;;;;;3.33;2.22;;;;;;;;;;5031276;28;20389;-78
2023/11/08 02:33:29;;;;;;;2.80;2.25;;;;;;;;;;5031116;28;20468;-78
2023/11/08 02:35:57;;;;;;;2.30;2.10;;;;;;;;;;5031518;28;20479;-78
2023/11/08 02:38:23;;;;;;;2.38;2.13;;;;;;;;;;5037146;28;20411;-78
2023/11/08 02:40:49;;;;;;;2.42;2.22;;;;;;;;;;5034981;28;20383;-78
2023/11/08 02:43:16;;;;;;;2.13;1.93;;;;;;;;;;5032984;28;20873;-78
2023/11/08 02:45:42;;;;;;;2.28;2.08;;;;;;;;;;5031974;28;20621;-78
2023/11/08 02:48:08;;;;;;;2.47;2.28;;;;;;;;;;5031790;28;20869;-78
2023/11/08 02:50:36;;;;;;;2.47;2.00;;;;;;;;;;5031927;28;20414;-78
2023/11/08 02:53:02;;;;;;;2.40;2.10;;;;;;;;;;5035395;28;20467;-78
2023/11/08 02:55:28;;;;;;;3.42;2.30;;;;;;;;;;5035406;28;20725;-78
2023/11/08 02:57:54;;;;;;;2.40;2.20;;;;;;;;;;5035129;28;20391;-78
2023/11/08 03:00:23;;;;;;;2.72;2.10;;;;;;;;;;5035059;28;20513;-78
2023/11/08 03:02:51;;;;;;;3.08;2.35;;;;;;;;;;5035129;28;20383;-78
2023/11/08 03:05:21;;;;;;;2.45;2.25;;;;;;;;;;5032972;28;20452;-78
2023/11/08 03:07:51;;;;;;;2.40;2.20;;;;;;;;;;5032984;28;20932;-78
2023/11/08 03:10:17;;;;;;;2.47;2.28;;;;;;;;;;5033494;28;20386;-78
2023/11/08 03:12:43;;;;;;;2.83;2.30;;;;;;;;;;5033372;28;20950;-78
2023/11/08 03:15:11;;;;;;;2.53;2.30;;;;;;;;;;5033578;28;20460;-78
2023/11/08 03:17:37;;;;;;;2.40;2.20;;;;;;;;;;5031271;28;20528;-78
2023/11/08 03:20:03;;;;;;;2.75;2.50;;;;;;;;;;5034704;28;20395;-78
2023/11/08 03:22:30;;;;;;;3.05;2.55;;;;;;;;;;5034942;28;20395;-78
2023/11/08 03:24:56;;;;;;;3.10;2.40;;;;;;;;;;5034669;28;20810;-78
2023/11/08 03:27:22;;;;;;;2.47;1.83;;;;;;;;;;5034341;28;20395;-78
2023/11/08 03:29:48;;;;;;;2.13;1.70;;;;;;;;;;5033530;28;20383;-78
2023/11/08 03:32:15;;;;;;;2.13;1.85;;;;;;;;;;5033067;28;20411;-78
2023/11/08 03:34:41;;;;;;;2.50;2.00;;;;;;;;;;5033641;28;20395;-78
2023/11/08 03:37:07;;;;;;;1.80;1.63;;;;;;;;;;5029668;28;20411;-78
2023/11/08 03:39:33;;;;;;;2.97;1.60;;;;;;;;;;5007005;28;20936;-78
2023/11/08 03:41:59;;;;;;;2.60;1.60;;;;;;;;;;5034295;28;20382;-78
2023/11/08 03:44:25;;;;;;;3.10;1.77;;;;;;;;;;5035006;28;20733;-78
2023/11/08 03:46:51;;;;;;;2.58;1.98;;;;;;;;;;5035394;28;20462;-79
2023/11/08 03:49:17;;;;;;;1.98;1.80;;;;;;;;;;5035669;28;20526;-78
2023/11/08 03:51:42;;;;;;;2.10;1.90;;;;;;;;;;5035848;28;21114;-78
2023/11/08 03:54:09;;;;;;;2.30;1.95;;;;;;;;;;5044985;28;20442;-79
2023/11/08 03:56:35;;;;;;;1.92;1.73;;;;;;;;;;5038189;28;20383;-78
2023/11/08 03:59:00;;;;;;;2.70;1.80;;;;;;;;;;5035369;28;20387;-78
2023/11/08 04:01:28;;;;;;;2.03;1.55;;;;;;;;;;5034863;28;20383;-78
2023/11/08 04:03:54;;;;;;;2.20;2.00;;;;;;;;;;5033387;28;20389;-78
2023/11/08 04:06:20;;;;;;;2.00;1.80;;;;;;;;;;5035533;28;20478;-79
2023/11/08 04:08:46;;;;;;;2.35;1.83;;;;;;;;;;5035204;28;20379;-79
2023/11/08 04:11:12;;;;;;;2.00;1.70;;;;;;;;;;5035679;28;20706;-78
2023/11/08 04:13:38;;;;;;;1.60;1.50;;;;;;;;;;5035258;28;20461;-78
2023/11/08 04:16:04;;;;;;;2.83;1.90;;;;;;;;;;5035099;28;20849;-78
2023/11/08 04:18:30;;;;;;;2.80;1.70;;;;;;;;;;5034999;28;20395;-78
2023/11/08 04:20:56;;;;;;;2.53;1.88;;;;;;;;;;5034830;28;20498;-78
2023/11/08 04:23:22;;;;;;;3.92;2.38;;;;;;;;;;5034750;28;20402;-78
2023/11/08 04:25:49;;;;;;;2.85;2.22;;;;;;;;;;5034224;28;20386;-78
2023/11/08 04:28:17;;;;;;;3.10;2.13;;;;;;;;;;5034558;28;20379;-78
2023/11/08 04:30:44;;;;;;;3.03;2.00;;;;;;;;;;5033990;28;20387;-78
2023/11/08 04:33:10;;;;;;;2.20;2.00;;;;;;;;;;5034015;28;20896;-78
2023/11/08 04:35:36;;;;;;;2.10;1.75;;;;;;;;;;5033907;28;20470;-78
2023/11/08 04:38:02;;;;;;;2.05;1.60;;;;;;;;;;5034556;28;20422;-78
2023/11/08 04:40:28;;;;;;;4.10;2.17;;;;;;;;;;5034545;28;20494;-78
2023/11/08 04:42:54;;;;;;;2.10;1.90;;;;;;;;;;5033551;28;20411;-78
2023/11/08 04:45:20;;;;;;;2.65;2.05;;;;;;;;;;5034406;28;20877;-78
2023/11/08 04:47:46;;;;;;;2.38;2.08;;;;;;;;;;5034152;28;20384;-78
2023/11/08 04:50:12;;;;;;;2.20;2.00;;;;;;;;;;5033149;28;20402;-78
2023/11/08 04:52:38;;;;;;;2.25;2.03;;;;;;;;;;5033028;28;20403;-78
2023/11/08 04:55:05;;;;;;;3.30;2.38;;;;;;;;;;5033071;28;20741;-78
2023/11/08 04:57:32;;;;;;;2.97;2.17;;;;;;;;;;5032834;28;20390;-78
2023/11/08 04:59:58;;;;;;;2.83;1.92;;;;;;;;;;5032655;28;20394;-78
2023/11/08 05:02:24;;;;;;;2.10;1.90;;;;;;;;;;5032902;28;20394;-78
2023/11/08 05:04:52;;;;;;;2.80;2.00;;;;;;;;;;5033119;28;20387;-78
2023/11/08 05:07:19;;;;;;;2.10;1.90;;;;;;;;;;5032885;28;20387;-78
2023/11/08 05:09:45;;;;;;;2.80;1.80;;;;;;;;;;5033156;28;20522;-78
2023/11/08 05:12:12;;;;;;;2.67;2.40;;;;;;;;;;5033333;28;20772;-78
2023/11/08 05:14:38;;;;;;;2.88;2.38;;;;;;;;;;5032662;28;20395;-78
2023/11/08 05:17:04;;;;;;;3.65;2.00;;;;;;;;;;5032930;28;20391;-78
2023/11/08 05:19:30;;;;;;;3.60;1.70;;;;;;;;;;5032941;28;20411;-78
2023/11/08 05:21:56;;;;;;;2.05;1.70;;;;;;;;;;5032789;28;20387;-78
2023/11/08 05:24:22;;;;;;;2.70;1.73;;;;;;;;;;5032351;28;20383;-78
2023/11/08 05:26:49;;;;;;;1.70;1.50;;;;;;;;;;5032286;28;20428;-78
2023/11/08 05:29:15;;;;;;;3.00;1.80;;;;;;;;;;5032395;28;20383;-78
2023/11/08 05:31:41;;;;;;;1.90;1.60;;;;;;;;;;5032535;28;20478;-78
2023/11/08 05:34:07;;;;;;;2.10;1.53;;;;;;;;;;5032214;28;20492;-78
2023/11/08 05:36:34;;;;;;;2.00;1.80;;;;;;;;;;5029097;28;20409;-78
2023/11/08 05:39:00;;;;;;;2.50;1.42;;;;;;;;;;5032328;28;20462;-78
2023/11/08 05:41:26;;;;;;;2.53;1.85;;;;;;;;;;5032219;28;20383;-78
2023/11/08 05:43:53;;;;;;;2.35;1.70;;;;;;;;;;5032517;28;20403;-78
2023/11/08 05:46:19;;;;;;;3.30;1.90;;;;;;;;;;5032353;28;20387;-78
2023/11/08 05:48:45;;;;;;;2.67;2.10;;;;;;;;;;5032425;28;20387;-78
2023/11/08 05:51:12;;;;;;;2.70;1.50;;;;;;;;;;5032603;28;20394;-78
2023/11/08 05:53:38;;;;;;;3.05;1.83;;;;;;;;;;5031932;28;20407;-78
2023/11/08 05:56:06;;;;;;;2.50;1.40;;;;;;;;;;5031753;28;20470;-78
2023/11/08 05:58:32;;;;;;;2.00;1.67;;;;;;;;;;5031692;28;20395;-78
2023/11/08 06:00:58;;;;;;;2.57;2.17;;;;;;;;;;5032408;28;20565;-78
2023/11/08 06:03:24;;;;;;;2.90;1.80;;;;;;;;;;5031801;28;20395;-78
2023/11/08 06:05:50;;;;;;;2.50;1.80;;;;;;;;;;5031851;28;20848;-78
2023/11/08 06:08:16;;;;;;;1.98;1.77;;;;;;;;;;5025589;28;20942;-78
2023/11/08 06:10:42;;;;;;;2.67;2.33;;;;;;;;;;5024829;28;20464;-78
2023/11/08 06:13:09;;;;;;;3.50;1.85;;;;;;;;;;5034396;28;20419;-78
2023/11/08 06:15:35;;;;;;;2.53;1.88;;;;;;;;;;5033653;28;20460;-78
2023/11/08 06:18:01;;;;;;;2.53;1.80;;;;;;;;;;5032852;28;20387;-78
2023/11/08 06:20:27;;;;;;;3.28;1.90;;;;;;;;;;5033208;28;20398;-78
2023/11/08 06:22:53;;;;;;;2.55;1.90;;;;;;;;;;5032863;28;20442;-78
2023/11/08 06:25:19;;;;;;;2.30;1.97;;;;;;;;;;5032702;28;20856;-78
2023/11/08 06:27:47;;;;;;;2.10;1.90;;;;;;;;;;5032225;28;20391;-78
2023/11/08 06:30:13;;;;;;;3.72;2.22;;;;;;;;;;5032655;28;20383;-78
2023/11/08 06:32:39;;;;;;;2.38;2.10;;;;;;;;;;5031144;28;20407;-78
2023/11/08 06:35:05;;;;;;;2.67;2.40;;;;;;;;;;5030694;28;20395;-78
2023/11/08 06:37:32;;;;;;;2.45;2.10;;;;;;;;;;5030940;28;20379;-77
2023/11/08 06:39:58;;;;;;;2.60;2.20;;;;;;;;;;5031197;28;20448;-77
2023/11/08 06:42:24;;;;;;;2.90;2.10;;;;;;;;;;5032753;28;20779;-78
2023/11/08 06:44:50;;;;;;;2.63;2.33;;;;;;;;;;5008838;28;21217;-78
2023/11/08 06:47:16;;;;;;;3.78;2.53;;;;;;;;;;5032872;28;20864;-78
2023/11/08 06:49:42;;;;;;;4.07;2.55;;;;;;;;;;5033477;28;20384;-79
2023/11/08 06:52:08;;;;;;;4.10;2.80;;;;;;;;;;5032714;28;20579;-79
2023/11/08 06:54:34;;;;;;;3.50;2.47;;;;;;;;;;5032749;28;20423;-79
2023/11/08 06:57:00;;;;;;;3.40;2.50;;;;;;;;;;5031008;28;20745;-78
2023/11/08 06:59:26;;;;;;;2.97;2.67;;;;;;;;;;5013972;28;20398;-78
2023/11/08 07:01:52;;;;;;;4.20;2.73;;;;;;;;;;5031140;28;20998;-78
2023/11/08 07:04:18;;;;;;;3.17;2.88;;;;;;;;;;5031331;28;20481;-78
2023/11/08 07:06:45;;;;;;;3.72;3.33;;;;;;;;;;5031208;28;20383;-78
2023/11/08 07:09:11;;;;;;;4.07;2.95;;;;;;;;;;5031192;28;20797;-78
2023/11/08 07:11:37;;;;;;;3.22;2.97;;;;;;;;;;5031220;28;20410;-78
2023/11/08 07:14:04;;;;;;;4.47;4.07;;;;;;;;;;5031010;28;20868;-78
2023/11/08 07:16:30;;;;;;;5.35;4.10;;;;;;;;;;5031066;28;20387;-79
2023/11/08 07:18:56;;;;;;;5.10;3.50;;;;;;;;;;5032450;28;20772;-77
2023/11/08 07:21:22;;;;;;;3.60;2.78;;;;;;;;;;5030847;28;20395;-77
2023/11/08 07:23:49;;;;;;;3.20;2.90;;;;;;;;;;5030686;28;20379;-77
2023/11/08 07:26:16;;;;;;;3.35;3.03;;;;;;;;;;5030061;28;20395;-77
2023/11/08 07:28:45;;;;;;;3.45;3.15;;;;;;;;;;5031049;28;20383;-78
2023/11/08 07:31:14;;;;;;;3.45;2.80;;;;;;;;;;5030402;28;20399;-77
2023/11/08 07:33:43;;;;;;;3.58;3.08;;;;;;;;;;5030342;28;20945;-78
2023/11/08 07:36:09;;;;;;;5.22;3.13;;;;;;;;;;5027303;28;20395;-80
2023/11/08 07:38:35;;;;;;;3.85;2.95;;;;;;;;;;5035664;28;20387;-79
2023/11/08 07:41:02;;;;;;;3.40;3.10;;;;;;;;;;5036330;28;20378;-79
2023/11/08 07:43:31;;;;;;;3.35;3.05;;;;;;;;;;5036487;28;20383;-79
2023/11/08 07:45:59;;;;;;;3.75;3.42;;;;;;;;;;5019265;28;20790;-79
2023/11/08 07:48:26;;;;;;;4.85;4.45;;;;;;;;;;5036977;28;20383;-79
2023/11/08 07:50:52;;;;;;;4.18;3.80;;;;;;;;;;5036940;28;20860;-79
2023/11/08 07:53:19;;;;;;;4.70;4.30;;;;;;;;;;5036301;28;20415;-79
2023/11/08 07:55:45;;;;;;;4.13;3.83;;;;;;;;;;5036446;28;20383;-79
2023/11/08 07:58:11;;;;;;;3.73;3.43;;;;;;;;;;5036873;28;20448;-79
2023/11/08 08:00:39;;;;;;;4.28;3.70;;;;;;;;;;5036360;28;20441;-79
2023/11/08 08:03:05;;;;;;;3.55;3.22;;;;;;;;;;5036343;28;20391;-79
2023/11/08 08:05:31;;;;;;;4.80;3.70;;;;;;;;;;5036951;28;20401;-79
2023/11/08 08:07:57;;;;;;;4.07;3.17;;;;;;;;;;5036883;28;20394;-79
2023/11/08 08:10:31;;;;;;;3.60;3.30;;;;;;;;;;5037388;28;20829;-79
2023/11/08 08:12:57;;;;;;;4.00;3.70;;;;;;;;;;5036800;28;20417;-79
2023/11/08 08:15:24;;;;;;;4.07;3.67;;;;;;;;;;5036586;28;20398;-79
2023/11/08 08:17:50;;;;;;;3.90;3.60;;;;;;;;;;5037756;28;20375;-81
2023/11/08 08:20:16;;;;;;;4.15;3.75;;;;;;;;;;5036812;28;20780;-80
2023/11/08 08:22:42;;;;;;;4.90;4.37;;;;;;;;;;5037109;28;20430;-80
2023/11/08 08:25:11;;;;;;;3.97;3.50;;;;;;;;;;5037064;28;20918;-80
2023/11/08 08:27:38;;;;;;;3.83;3.42;;;;;;;;;;5037839;28;20740;-80
2023/11/08 08:30:04;;;;;;;3.87;3.57;;;;;;;;;;5037170;28;20779;-80
2023/11/08 08:32:30;;;;;;;3.85;3.50;;;;;;;;;;5037149;28;20438;-80
2023/11/08 08:34:56;;;;;;;3.67;2.83;;;;;;;;;;5037744;28;20395;-80
2023/11/08 08:37:22;;;;;;;3.70;3.30;;;;;;;;;;5037147;28;20490;-80
2023/11/08 08:39:48;;;;;;;3.28;2.97;;;;;;;;;;5036658;28;20383;-80
2023/11/08 08:42:15;;;;;;;3.45;3.00;;;;;;;;;;5037573;28;20441;-80
2023/11/08 08:44:40;;;;;;;3.00;2.80;;;;;;;;;;5036524;28;20389;-80
2023/11/08 08:47:06;;;;;;;4.00;2.80;;;;;;;;;;5037585;28;20430;-80
2023/11/08 08:49:32;;;;;;;3.03;2.75;;;;;;;;;;5035175;28;20418;-80
2023/11/08 08:51:58;;;;;;;3.25;2.55;;;;;;;;;;5035849;28;20386;-80
2023/11/08 08:54:25;;;;;;;2.78;2.58;;;;;;;;;;5036111;28;20418;-79
2023/11/08 08:56:51;;;;;;;3.28;2.97;;;;;;;;;;5036384;28;20395;-80
2023/11/08 08:59:17;;;;;;;4.13;2.72;;;;;;;;;;5035449;28;20386;-80
2023/11/08 09:01:43;;;;;;;2.90;2.70;;;;;;;;;;5035796;28;20493;-80
2023/11/08 09:04:09;;;;;;;3.20;2.72;;;;;;;;;;5018711;28;20395;-80
2023/11/08 09:06:35;;;;;;;3.20;2.90;;;;;;;;;;5036407;28;20400;-80
2023/11/08 09:09:01;;;;;;;3.25;2.95;;;;;;;;;;5035729;28;20398;-78
2023/11/08 09:11:27;;;;;;;3.05;2.80;;;;;;;;;;5036282;28;20469;-80
2023/11/08 09:13:54;;;;;;;3.22;2.90;;;;;;;;;;5035881;28;20974;-80
2023/11/08 09:16:20;;;;;;;3.60;3.30;;;;;;;;;;5036370;28;20427;-80
2023/11/08 09:18:46;;;;;;;3.00;2.70;;;;;;;;;;5036546;28;20391;-80
2023/11/08 09:21:12;;;;;;;3.50;3.20;;;;;;;;;;5035586;28;21133;-79
2023/11/08 09:23:41;;;;;;;3.20;2.90;;;;;;;;;;5035651;28;20383;-80
2023/11/08 09:26:09;;;;;;;3.40;3.08;;;;;;;;;;5035221;28;20429;-80
2023/11/08 09:28:35;;;;;;;3.55;3.25;;;;;;;;;;5036048;28;20383;-80
2023/11/08 09:31:01;;;;;;;3.40;3.10;;;;;;;;;;5036166;28;20845;-81
2023/11/08 09:33:27;;;;;;;3.60;3.30;;;;;;;;;;5034179;28;20415;-81
2023/11/08 09:35:53;;;;;;;3.60;3.20;;;;;;;;;;5018012;28;20940;-80
2023/11/08 09:38:19;;;;;;;3.35;3.05;;;;;;;;;;5020143;28;20404;-81
2023/11/08 09:40:45;;;;;;;4.03;3.42;;;;;;;;;;5014955;28;20468;-81
2023/11/08 09:43:11;;;;;;;3.60;3.30;;;;;;;;;;5013090;28;20898;-79
2023/11/08 09:45:38;;;;;;;3.45;3.15;;;;;;;;;;5012663;28;20416;-82
2023/11/08 09:48:05;;;;;;;3.95;3.45;;;;;;;;;;5013001;28;20412;-79
2023/11/08 09:50:32;;;;;;;3.80;2.95;;;;;;;;;;5011928;28;20480;-79
2023/11/08 09:52:58;;;;;;;7.63;3.53;;;;;;;;;;5012545;28;20522;-81
2023/11/08 09:55:24;;;;;;;3.00;2.80;;;;;;;;;;5014268;28;20401;-79
2023/11/08 09:57:53;;;;;;;3.72;3.30;;;;;;;;;;5013897;28;20435;-79
2023/11/08 10:00:23;;;;;;;3.25;2.95;;;;;;;;;;5013824;28;20479;-82
2023/11/08 10:02:53;;;;;;;3.80;3.40;;;;;;;;;;5014794;28;20415;-81
2023/11/08 10:05:19;;;;;;;3.20;2.70;;;;;;;;;;5014053;28;20393;-81
2023/11/08 10:07:45;;;;;;;3.10;2.90;;;;;;;;;;5022422;28;20845;-81
2023/11/08 10:10:11;;;;;;;3.17;2.58;;;;;;;;;;5033552;28;20425;-81
2023/11/08 10:12:38;;;;;;;2.92;2.50;;;;;;;;;;5033243;28;20741;-81
2023/11/08 10:15:06;;;;;;;3.08;2.45;;;;;;;;;;5033639;28;20398;-81
2023/11/08 10:17:39;;;;;;;2.53;2.33;;;;;;;;;;5034000;28;20856;-82
2023/11/08 10:20:08;;;;;;;3.60;2.53;;;;;;;;;;5033550;28;20480;-82
2023/11/08 10:22:34;;;;;;;3.35;2.55;;;;;;;;;;5033936;28;20724;-80
2023/11/08 10:25:02;;;;;;;3.38;2.50;;;;;;;;;;5034029;28;20379;-82
2023/11/08 10:27:28;;;;;;;2.55;2.10;;;;;;;;;;5033073;28;20411;-82
2023/11/08 10:30:12;;;;;;;2.83;2.58;;;;;;;;;;5032019;28;20382;-81
2023/11/08 10:32:38;;;;;;;3.10;2.28;;;;;;;;;;5032377;28;20415;-81
2023/11/08 10:35:23;;;;;;;2.25;2.05;;;;;;;;;;5033175;28;20426;-82
2023/11/08 10:37:50;;;;;;;2.83;2.30;;;;;;;;;;5033205;28;20699;-81
2023/11/08 10:40:16;;;;;;;2.30;2.10;;;;;;;;;;5033320;28;20395;-80
2023/11/08 10:42:52;;;;;;;4.18;2.20;;;;;;;;;;5033130;28;20387;-82
2023/11/08 10:45:19;;;;;;;3.40;2.20;;;;;;;;;;5032841;28;20819;-80
2023/11/08 10:47:46;;;;;;;3.55;2.15;;;;;;;;;;5033546;28;20425;-80
2023/11/08 10:50:15;;;;;;;2.42;2.20;;;;;;;;;;5032561;28;20395;-80
2023/11/08 10:52:42;;;;;;;2.30;2.05;;;;;;;;;;5033014;28;20402;-82
2023/11/08 10:55:09;;;;;;;2.60;2.38;;;;;;;;;;5032684;28;20448;-80
2023/11/08 10:57:35;;;;;;;3.20;2.20;;;;;;;;;;5032135;28;20454;-81
2023/11/08 11:00:02;;;;;;;3.13;2.30;;;;;;;;;;5032787;28;20379;-80
2023/11/08 11:02:34;;;;;;;2.40;2.03;;;;;;;;;;5032055;28;20391;-81
2023/11/08 11:05:03;;;;;;;2.40;2.10;;;;;;;;;;5033116;28;20386;-80
2023/11/08 11:07:30;;;;;;;2.78;2.10;;;;;;;;;;5032487;28;20776;-80
2023/11/08 11:09:56;;;;;;;3.30;1.95;;;;;;;;;;5032960;28;20840;-80
2023/11/08 11:12:30;;;;;;;2.20;2.00;;;;;;;;;;5034217;28;20391;-80
2023/11/08 11:15:02;;;;;;;3.70;1.95;;;;;;;;;;5035912;28;20395;-81
2023/11/08 11:17:30;;;;;;;2.92;2.00;;;;;;;;;;5036328;28;20908;-81
2023/11/08 11:20:01;;;;;;;3.53;1.95;;;;;;;;;;5036084;28;20393;-81
2023/11/08 11:22:27;;;;;;;2.92;2.00;;;;;;;;;;5036016;28;21190;-81
2023/11/08 11:24:53;;;;;;;2.53;1.67;;;;;;;;;;5036032;28;20871;-81
2023/11/08 11:27:38;;;;;;;4.47;2.88;;;;;;;;;;5035533;28;20387;-80
2023/11/08 11:30:27;;;;;;;3.92;2.25;;;;;;;;;;5036272;28;20455;-82
2023/11/08 11:32:54;;;;;;;2.42;1.80;;;;;;;;;;5036533;28;20414;-80
2023/11/08 11:35:20;;;;;;;2.20;1.80;;;;;;;;;;5036288;28;20395;-80
2023/11/08 11:38:05;;;;;;;2.58;1.63;;;;;;;;;;5032895;28;20795;-80
2023/11/08 11:40:31;;;;;;;4.15;1.95;;;;;;;;;;5034762;28;20910;-80
2023/11/08 11:42:58;;;;;;;2.25;2.00;;;;;;;;;;5035781;28;20395;-80
2023/11/08 11:45:25;;;;;;;3.37;1.80;;;;;;;;;;5036192;28;20448;-80
2023/11/08 11:47:52;;;;;;;3.25;1.98;;;;;;;;;;5036659;28;20391;-80
2023/11/08 11:50:18;;;;;;;4.00;1.95;;;;;;;;;;5036589;28;20383;-80
2023/11/08 11:52:44;;;;;;;2.30;1.80;;;;;;;;;;5035929;28;20872;-79
2023/11/08 11:55:11;;;;;;;3.63;2.10;;;;;;;;;;5036203;28;20887;-82
2023/11/08 11:57:37;;;;;;;1.73;1.60;;;;;;;;;;5035611;28;20749;-80
2023/11/08 12:00:05;;;;;;;2.42;1.70;;;;;;;;;;5035883;28;20399;-81
2023/11/08 12:02:31;;;;;;;3.50;1.77;;;;;;;;;;5035540;28;20399;-80
2023/11/08 12:04:59;;;;;;;2.10;1.53;;;;;;;;;;5035235;28;20552;-80
2023/11/08 12:07:25;;;;;;;2.90;1.80;;;;;;;;;;5035965;28;20844;-80
2023/11/08 12:09:52;;;;;;;3.53;1.80;;;;;;;;;;5034433;28;20386;-80
2023/11/08 12:12:27;;;;;;;1.67;1.50;;;;;;;;;;5030550;28;20395;-80
2023/11/08 12:14:53;;;;;;;2.63;1.55;;;;;;;;;;5035598;28;20447;-80
2023/11/08 12:17:19;;;;;;;2.20;1.50;;;;;;;;;;5034686;28;20421;-80
2023/11/08 12:19:45;;;;;;;2.53;1.70;;;;;;;;;;5035423;28;20387;-80
2023/11/08 12:22:11;;;;;;;1.73;1.55;;;;;;;;;;5036055;28;20394;-80
2023/11/08 12:24:37;;;;;;;5.15;3.90;;;;;;;;;;5035317;28;20395;-80
2023/11/08 12:27:04;;;;;;;3.70;1.90;;;;;;;;;;5035331;28;20383;-80
2023/11/08 12:29:31;;;;;;;3.70;1.90;;;;;;;;;;5035654;28;20399;-80
2023/11/08 12:31:57;;;;;;;2.13;1.27;;;;;;;;;;5036651;28;20398;-80
2023/11/08 12:34:25;;;;;;;2.05;1.30;;;;;;;;;;5034759;28;20439;-80
2023/11/08 12:36:52;;;;;;;2.67;1.30;;;;;;;;;;5036262;28;20387;-80
2023/11/08 12:39:20;;;;;;;2.60;1.27;;;;;;;;;;5035937;28;20387;-80
2023/11/08 12:41:50;;;;;;;2.03;1.05;;;;;;;;;;5036402;28;20406;-80
2023/11/08 12:44:19;;;;;;;1.83;1.30;;;;;;;;;;5036330;28;20426;-80
2023/11/08 12:46:55;;;;;;;2.40;1.30;;;;;;;;;;5035873;28;20852;-80
2023/11/08 12:49:26;;;;;;;1.40;1.17;;;;;;;;;;5035964;28;20490;-80
2023/11/08 12:51:52;;;;;;;2.50;1.73;;;;;;;;;;5036860;28;20379;-80
2023/11/08 12:54:19;;;;;;;10.82;5.28;;;;;;;;;;5035479;28;20411;-80
2023/11/08 12:56:45;;;;;;;6.70;4.10;;;;;;;;;;5035279;28;20391;-80
2023/11/08 12:59:11;;;;;;;4.25;2.30;;;;;;;;;;5035796;28;20387;-79
2023/11/08 13:01:38;;;;;;;2.42;1.50;;;;;;;;;;5035452;28;20504;-81
2023/11/08 13:04:05;;;;;;;1.92;1.38;;;;;;;;;;5035520;28;20387;-79
2023/11/08 13:06:31;;;;;;;2.72;1.40;;;;;;;;;;5035652;28;20478;-79
2023/11/08 13:08:57;;;;;;;2.40;1.30;;;;;;;;;;5035801;28;20390;-79
2023/11/08 13:11:23;;;;;;;1.70;1.30;;;;;;;;;;5035402;28;20843;-80
2023/11/08 13:13:51;;;;;;;2.67;1.60;;;;;;;;;;5034788;28;20458;-79
2023/11/08 13:16:17;;;;;;;2.53;1.27;;;;;;;;;;5034997;28;20384;-80
2023/11/08 13:18:43;;;;;;;2.08;1.40;;;;;;;;;;5035221;28;20872;-80
2023/11/08 13:21:09;;;;;;;1.70;1.10;;;;;;;;;;5035852;28;20788;-80
2023/11/08 13:23:35;;;;;;;2.53;1.20;;;;;;;;;;5035413;28;20394;-80
2023/11/08 13:26:01;;;;;;;1.55;1.00;;;;;;;;;;5034780;28;20390;-80
2023/11/08 13:28:27;;;;;;;1.50;0.98;;;;;;;;;;5031908;28;20486;-80
2023/11/08 13:30:53;;;;;;;2.10;1.00;;;;;;;;;;5034975;28;20894;-80
2023/11/08 13:33:19;;;;;;;2.10;1.10;;;;;;;;;;5034991;28;20437;-80
2023/11/08 13:35:45;;;;;;;1.23;1.08;;;;;;;;;;5034233;28;20379;-80
2023/11/08 13:38:11;;;;;;;2.37;1.00;;;;;;;;;;5035179;28;20379;-80
2023/11/08 13:40:38;;;;;;;1.85;0.90;;;;;;;;;;5034301;28;20704;-82
2023/11/08 13:43:04;;;;;;;1.90;1.20;;;;;;;;;;5035155;28;20437;-80
2023/11/08 13:45:30;;;;;;;2.53;1.15;;;;;;;;;;5035120;28;20449;-80
2023/11/08 13:48:00;;;;;;;1.75;1.15;;;;;;;;;;5034895;28;20777;-80
2023/11/08 13:50:26;;;;;;;1.83;1.25;;;;;;;;;;5034714;28;20432;-80
2023/11/08 13:52:52;;;;;;;1.23;0.93;;;;;;;;;;5034792;28;20510;-80
2023/11/08 13:55:19;;;;;;;2.60;1.47;;;;;;;;;;5034249;28;20383;-79
2023/11/08 13:57:48;;;;;;;2.25;1.00;;;;;;;;;;5033693;28;20380;-80
2023/11/08 14:00:14;;;;;;;2.08;1.10;;;;;;;;;;5034381;28;20411;-80
2023/11/08 14:02:42;;;;;;;2.55;1.20;;;;;;;;;;5034836;28;20526;-80
2023/11/08 14:05:08;;;;;;;2.53;1.08;;;;;;;;;;5034357;28;20974;-80
2023/11/08 14:07:35;;;;;;;1.20;1.08;;;;;;;;;;5033872;28;20395;-80
2023/11/08 14:10:03;;;;;;;1.70;1.23;;;;;;;;;;5031816;28;20832;-80
2023/11/08 14:12:29;;;;;;;1.77;0.90;;;;;;;;;;5015015;28;20950;-80
2023/11/08 14:14:56;;;;;;;2.83;1.30;;;;;;;;;;5015490;28;20461;-80
2023/11/08 14:17:22;;;;;;;1.98;1.25;;;;;;;;;;5016131;28;20732;-80
2023/11/08 14:19:54;;;;;;;1.58;0.98;;;;;;;;;;5015778;28;20389;-80
2023/11/08 14:22:21;;;;;;;1.90;0.90;;;;;;;;;;5015042;28;20873;-80
2023/11/08 14:24:48;;;;;;;2.07;1.00;;;;;;;;;;5015282;28;20917;-80
2023/11/08 14:27:14;;;;;;;1.67;0.90;;;;;;;;;;5014406;28;20745;-80
2023/11/08 14:29:40;;;;;;;0.80;0.77;;;;;;;;;;5014834;28;20442;-80
2023/11/08 14:32:07;;;;;;;1.75;1.00;;;;;;;;;;5014934;28;20384;-80
2023/11/08 14:34:33;;;;;;;1.27;0.77;;;;;;;;;;5014823;28;20471;-80
2023/11/08 14:37:02;;;;;;;1.30;0.90;;;;;;;;;;5015173;28;20392;-80
2023/11/08 14:39:28;;;;;;;1.23;1.00;;;;;;;;;;5024312;28;20391;-80
2023/11/08 14:41:54;;;;;;;2.40;1.30;;;;;;;;;;5034713;28;20394;-80